BAW19NA EGLL-TXKF
Flight info
| Callsign | BAW19NA |
|---|---|
| Flight time | N/A |
| Altitude | 30000 |
| Route | GASGU N514 ADKIK DCT JOZMA DCT GAPLI/M085F300 DCT BEDRA DCT 49N020W 4830N03000W 47N040W 44N050W/M085F320 DCT SOORY DCT QINCY MOMOM1 |
| Aircraft | B77W/H-SDE1E2E3FGHIJ2J3J4J5M1RWXY/LB1D1 |
Departure
| Time | 2026-05-04 10:51 |
|---|---|
| Airport | London Heathrow Airport (EGLL) |
Arrival
| Time | N/A |
|---|---|
| Airport | L.F. Wade International Airport (TXKF) |
| Time | Latitude | Longitude | Altitude | Speed | Heading |
|---|---|---|---|---|---|
| 2026-05-04 10:14 | 51.47213 | -0.48019 | 91 ft | 0 kts | 270° |
| 2026-05-04 10:35 | 51.47213 | -0.48002 | 94 ft | 4 kts | 270° |
| 2026-05-04 10:36 | 51.47214 | -0.47959 | 91 ft | 4 kts | 270° |
| 2026-05-04 10:36 | 51.47214 | -0.47923 | 91 ft | 3 kts | 269° |
| 2026-05-04 10:36 | 51.47219 | -0.47886 | 91 ft | 4 kts | 224° |
| 2026-05-04 10:36 | 51.47240 | -0.47871 | 91 ft | 3 kts | 180° |
| 2026-05-04 10:37 | 51.47266 | -0.47871 | 89 ft | 4 kts | 180° |
| 2026-05-04 10:37 | 51.47273 | -0.47871 | 90 ft | 0 kts | 180° |
| 2026-05-04 10:40 | 51.47269 | -0.47871 | 91 ft | 1 kts | 180° |
| 2026-05-04 10:40 | 51.47251 | -0.47871 | 92 ft | 4 kts | 180° |
| 2026-05-04 10:40 | 51.47217 | -0.47871 | 91 ft | 6 kts | 180° |
| 2026-05-04 10:40 | 51.47168 | -0.47870 | 91 ft | 8 kts | 180° |
| 2026-05-04 10:41 | 51.47106 | -0.47870 | 91 ft | 10 kts | 179° |
| 2026-05-04 10:41 | 51.47033 | -0.47869 | 91 ft | 11 kts | 179° |
| 2026-05-04 10:41 | 51.46952 | -0.47868 | 92 ft | 12 kts | 179° |
| 2026-05-04 10:41 | 51.46862 | -0.47868 | 91 ft | 13 kts | 180° |
| 2026-05-04 10:42 | 51.46786 | -0.47867 | 91 ft | 8 kts | 180° |
| 2026-05-04 10:42 | 51.46745 | -0.47815 | 92 ft | 9 kts | 96° |
| 2026-05-04 10:42 | 51.46745 | -0.47712 | 91 ft | 10 kts | 90° |
| 2026-05-04 10:42 | 51.46745 | -0.47587 | 93 ft | 12 kts | 90° |
| 2026-05-04 10:43 | 51.46745 | -0.47445 | 92 ft | 13 kts | 90° |
| 2026-05-04 10:44 | 51.46748 | -0.46151 | 94 ft | 18 kts | 89° |
| 2026-05-04 10:45 | 51.46749 | -0.45955 | 94 ft | 18 kts | 89° |
| 2026-05-04 10:45 | 51.46749 | -0.45759 | 91 ft | 18 kts | 90° |
| 2026-05-04 10:45 | 51.46750 | -0.45564 | 91 ft | 18 kts | 89° |
| 2026-05-04 10:45 | 51.46751 | -0.45368 | 91 ft | 18 kts | 90° |
| 2026-05-04 10:46 | 51.46751 | -0.45172 | 91 ft | 18 kts | 90° |
| 2026-05-04 10:46 | 51.46752 | -0.44975 | 91 ft | 18 kts | 90° |
| 2026-05-04 10:46 | 51.46752 | -0.44779 | 91 ft | 18 kts | 89° |
| 2026-05-04 10:46 | 51.46753 | -0.44583 | 92 ft | 18 kts | 89° |
| 2026-05-04 10:47 | 51.46754 | -0.44386 | 93 ft | 18 kts | 89° |
| 2026-05-04 10:47 | 51.46755 | -0.44190 | 93 ft | 18 kts | 89° |
| 2026-05-04 10:47 | 51.46768 | -0.43996 | 93 ft | 18 kts | 79° |
| 2026-05-04 10:47 | 51.46772 | -0.43800 | 94 ft | 18 kts | 89° |
| 2026-05-04 10:49 | 51.46494 | -0.43755 | 91 ft | 22 kts | 269° |
| 2026-05-04 10:49 | 51.46492 | -0.44316 | 92 ft | 89 kts | 270° |
| 2026-05-04 10:50 | 51.46488 | -0.45750 | 92 ft | 165 kts | 270° |
| 2026-05-04 10:51 | 51.46155 | -0.63770 | 3980 ft | 255 kts | 256° |
| 2026-05-04 10:52 | 51.45737 | -0.66568 | 4592 ft | 263 kts | 258° |
| 2026-05-04 10:52 | 51.45445 | -0.69528 | 5128 ft | 273 kts | 265° |
| 2026-05-04 10:52 | 51.45353 | -0.72597 | 5820 ft | 277 kts | 268° |
| 2026-05-04 10:54 | 51.39901 | -0.90064 | 10506 ft | 286 kts | 209° |
| 2026-05-04 10:54 | 51.38108 | -0.91646 | 10804 ft | 302 kts | 209° |
| 2026-05-04 10:56 | 51.23925 | -1.05146 | 14153 ft | 375 kts | 213° |
| 2026-05-04 10:56 | 51.21722 | -1.07482 | 14617 ft | 385 kts | 213° |
| 2026-05-04 10:56 | 51.19485 | -1.09894 | 15212 ft | 390 kts | 214° |
| 2026-05-04 10:57 | 51.17240 | -1.12341 | 15898 ft | 392 kts | 213° |
| 2026-05-04 10:57 | 51.14964 | -1.14775 | 16619 ft | 395 kts | 213° |
| 2026-05-04 10:57 | 51.12657 | -1.17166 | 17328 ft | 397 kts | 212° |
| 2026-05-04 10:57 | 51.10330 | -1.19561 | 18052 ft | 399 kts | 214° |
| 2026-05-04 10:58 | 51.08159 | -1.22340 | 18647 ft | 403 kts | 222° |
| 2026-05-04 10:58 | 51.06185 | -1.25552 | 19214 ft | 407 kts | 229° |
| 2026-05-04 10:58 | 51.04434 | -1.29112 | 19804 ft | 410 kts | 232° |
| 2026-05-04 10:58 | 51.02695 | -1.32730 | 20397 ft | 413 kts | 232° |
| 2026-05-04 10:59 | 51.01096 | -1.36549 | 20947 ft | 418 kts | 239° |
| 2026-05-04 10:59 | 50.99807 | -1.40705 | 21483 ft | 422 kts | 245° |
| 2026-05-04 10:59 | 50.98813 | -1.45031 | 22073 ft | 425 kts | 252° |
| 2026-05-04 10:59 | 50.98041 | -1.49564 | 22642 ft | 427 kts | 253° |
| 2026-05-04 11:00 | 50.97272 | -1.54198 | 23181 ft | 430 kts | 253° |
| 2026-05-04 11:01 | 50.91691 | -1.86749 | 26277 ft | 445 kts | 252° |
| 2026-05-04 11:02 | 50.90861 | -1.91498 | 26627 ft | 449 kts | 251° |
| 2026-05-04 11:02 | 50.90022 | -1.96288 | 26961 ft | 452 kts | 251° |
| 2026-05-04 11:05 | 50.78320 | -2.65551 | 31196 ft | 477 kts | 257° |
| 2026-05-04 11:06 | 50.77751 | -2.70713 | 31458 ft | 477 kts | 257° |
| 2026-05-04 11:06 | 50.77181 | -2.75880 | 31718 ft | 477 kts | 257° |
| 2026-05-04 11:06 | 50.76599 | -2.81044 | 31940 ft | 479 kts | 257° |
| 2026-05-04 11:06 | 50.75998 | -2.86245 | 31967 ft | 484 kts | 258° |
| 2026-05-04 11:10 | 50.67144 | -3.59142 | 32027 ft | 485 kts | 257° |
| 2026-05-04 11:12 | 50.62041 | -3.99323 | 32005 ft | 490 kts | 257° |
| 2026-05-04 11:12 | 50.60372 | -4.11515 | 32003 ft | 490 kts | 256° |
| 2026-05-04 11:13 | 50.58917 | -4.21994 | 32009 ft | 491 kts | 256° |
| 2026-05-04 11:13 | 50.57704 | -4.30735 | 32001 ft | 492 kts | 256° |
| 2026-05-04 11:14 | 50.56238 | -4.41258 | 32016 ft | 493 kts | 256° |
| 2026-05-04 11:16 | 50.50287 | -4.83278 | 32024 ft | 493 kts | 256° |
| 2026-05-04 11:16 | 50.48768 | -4.93818 | 32025 ft | 495 kts | 256° |
| 2026-05-04 11:17 | 50.47245 | -5.04311 | 32026 ft | 496 kts | 256° |
| 2026-05-04 11:19 | 50.41009 | -5.46558 | 32013 ft | 496 kts | 256° |
| 2026-05-04 11:19 | 50.39427 | -5.57097 | 32018 ft | 496 kts | 256° |
| 2026-05-04 11:20 | 50.37843 | -5.67571 | 32008 ft | 497 kts | 256° |
| 2026-05-04 11:20 | 50.36241 | -5.78108 | 32006 ft | 498 kts | 256° |
| 2026-05-04 11:22 | 50.29706 | -6.20359 | 32018 ft | 502 kts | 256° |
| 2026-05-04 11:23 | 50.28036 | -6.30982 | 32011 ft | 503 kts | 256° |
| 2026-05-04 11:25 | 50.22098 | -6.68215 | 32012 ft | 505 kts | 256° |
| 2026-05-04 11:25 | 50.20377 | -6.78846 | 32013 ft | 505 kts | 256° |
| 2026-05-04 11:27 | 50.12533 | -7.26494 | 32022 ft | 505 kts | 256° |
| 2026-05-04 11:28 | 50.10758 | -7.37087 | 32005 ft | 506 kts | 256° |
| 2026-05-04 11:28 | 50.08971 | -7.47699 | 32015 ft | 507 kts | 256° |
| 2026-05-04 11:29 | 50.07181 | -7.58255 | 32014 ft | 508 kts | 256° |
| 2026-05-04 11:29 | 50.05367 | -7.68896 | 32020 ft | 509 kts | 256° |
| 2026-05-04 11:33 | 49.95025 | -8.44364 | 32041 ft | 514 kts | 262° |
| 2026-05-04 11:33 | 49.93767 | -8.55302 | 32037 ft | 515 kts | 261° |
| 2026-05-04 11:34 | 49.92494 | -8.66264 | 32031 ft | 516 kts | 262° |
| 2026-05-04 11:34 | 49.91220 | -8.77156 | 32046 ft | 516 kts | 262° |
| 2026-05-04 11:35 | 49.89927 | -8.88147 | 32044 ft | 517 kts | 262° |
| 2026-05-04 11:35 | 49.88622 | -8.99135 | 32047 ft | 517 kts | 261° |
| 2026-05-04 11:36 | 49.87318 | -9.10026 | 32046 ft | 517 kts | 261° |
| 2026-05-04 11:36 | 49.85993 | -9.20992 | 32046 ft | 517 kts | 262° |
| 2026-05-04 11:37 | 49.84658 | -9.31961 | 32058 ft | 518 kts | 262° |
| 2026-05-04 11:37 | 49.83311 | -9.42936 | 32055 ft | 519 kts | 261° |
| 2026-05-04 11:38 | 49.81950 | -9.53926 | 32058 ft | 520 kts | 261° |
| 2026-05-04 11:38 | 49.80586 | -9.64856 | 32063 ft | 520 kts | 261° |
| 2026-05-04 11:39 | 49.79204 | -9.75834 | 32062 ft | 520 kts | 261° |
| 2026-05-04 11:41 | 49.74290 | -10.14190 | 32062 ft | 518 kts | 261° |
| 2026-05-04 11:41 | 49.72865 | -10.25116 | 32069 ft | 518 kts | 261° |
| 2026-05-04 11:42 | 49.71432 | -10.36021 | 32073 ft | 517 kts | 261° |
| 2026-05-04 11:42 | 49.70000 | -10.46836 | 32054 ft | 518 kts | 261° |
| 2026-05-04 11:43 | 49.68544 | -10.57748 | 32087 ft | 519 kts | 261° |
| 2026-05-04 11:43 | 49.67073 | -10.68690 | 32083 ft | 520 kts | 261° |
| 2026-05-04 11:44 | 49.65590 | -10.79641 | 32078 ft | 521 kts | 261° |
| 2026-05-04 11:44 | 49.64093 | -10.90600 | 32070 ft | 522 kts | 261° |
| 2026-05-04 11:45 | 49.62583 | -11.01577 | 32084 ft | 523 kts | 261° |
| 2026-05-04 11:45 | 49.61069 | -11.12507 | 32090 ft | 525 kts | 261° |
| 2026-05-04 11:46 | 49.59533 | -11.23506 | 32095 ft | 525 kts | 261° |
| 2026-05-04 11:46 | 49.57985 | -11.34511 | 32078 ft | 525 kts | 261° |
| 2026-05-04 11:47 | 49.56428 | -11.45498 | 32095 ft | 525 kts | 261° |
| 2026-05-04 11:47 | 49.54857 | -11.56508 | 32111 ft | 526 kts | 261° |
| 2026-05-04 11:48 | 49.53275 | -11.67511 | 32104 ft | 526 kts | 261° |
| 2026-05-04 11:48 | 49.51693 | -11.78433 | 32105 ft | 525 kts | 261° |
| 2026-05-04 11:49 | 49.50093 | -11.89400 | 32108 ft | 525 kts | 261° |
| 2026-05-04 11:49 | 49.48485 | -12.00352 | 32116 ft | 524 kts | 261° |
| 2026-05-04 11:50 | 49.46867 | -12.11294 | 32115 ft | 524 kts | 261° |
| 2026-05-04 11:50 | 49.45242 | -12.22199 | 32116 ft | 523 kts | 261° |
| 2026-05-04 11:51 | 49.43609 | -12.33091 | 32124 ft | 523 kts | 261° |
| 2026-05-04 11:51 | 49.41966 | -12.43968 | 32137 ft | 523 kts | 261° |
| 2026-05-04 11:52 | 49.40323 | -12.54774 | 32136 ft | 523 kts | 261° |
| 2026-05-04 11:52 | 49.38660 | -12.65631 | 32136 ft | 522 kts | 261° |
| 2026-05-04 11:53 | 49.36989 | -12.76475 | 32146 ft | 522 kts | 260° |
| 2026-05-04 11:53 | 49.35307 | -12.87313 | 32161 ft | 522 kts | 260° |
| 2026-05-04 11:55 | 49.28491 | -13.30508 | 32169 ft | 521 kts | 260° |
| 2026-05-04 11:56 | 49.26762 | -13.41288 | 32168 ft | 521 kts | 260° |
| 2026-05-04 11:56 | 49.25023 | -13.52059 | 32171 ft | 520 kts | 260° |
| 2026-05-04 11:57 | 49.23280 | -13.62792 | 32173 ft | 519 kts | 259° |
| 2026-05-04 11:57 | 49.21526 | -13.73514 | 32174 ft | 519 kts | 259° |
| 2026-05-04 11:58 | 49.19766 | -13.84214 | 32180 ft | 519 kts | 259° |
| 2026-05-04 11:58 | 49.17992 | -13.94927 | 32182 ft | 519 kts | 259° |
| 2026-05-04 11:59 | 49.16210 | -14.05618 | 32181 ft | 519 kts | 259° |
| 2026-05-04 11:59 | 49.14418 | -14.16306 | 32195 ft | 519 kts | 259° |
| 2026-05-04 12:00 | 49.12628 | -14.26916 | 32196 ft | 520 kts | 259° |
| 2026-05-04 12:00 | 49.10815 | -14.37594 | 32195 ft | 519 kts | 259° |
| 2026-05-04 12:01 | 49.08996 | -14.48245 | 32204 ft | 518 kts | 259° |
| 2026-05-04 12:02 | 49.02878 | -14.83605 | 32199 ft | 516 kts | 258° |
| 2026-05-04 12:03 | 49.01048 | -14.94173 | 32218 ft | 514 kts | 261° |
| 2026-05-04 12:03 | 49.00095 | -15.04867 | 32222 ft | 507 kts | 272° |
| 2026-05-04 12:04 | 49.00234 | -15.15539 | 32217 ft | 503 kts | 276° |
| 2026-05-04 12:04 | 49.00498 | -15.26106 | 32222 ft | 503 kts | 276° |
| 2026-05-04 12:05 | 49.00725 | -15.36758 | 32234 ft | 503 kts | 276° |
| 2026-05-04 12:05 | 49.00921 | -15.47428 | 32230 ft | 504 kts | 276° |
| 2026-05-04 12:06 | 49.01100 | -15.58104 | 32214 ft | 504 kts | 275° |
| 2026-05-04 12:06 | 49.01270 | -15.68774 | 32239 ft | 503 kts | 275° |
| 2026-05-04 12:07 | 49.01432 | -15.79432 | 32245 ft | 503 kts | 275° |
| 2026-05-04 12:07 | 49.01584 | -15.90096 | 32249 ft | 503 kts | 275° |
| 2026-05-04 12:08 | 49.01727 | -16.00732 | 32250 ft | 502 kts | 275° |
| 2026-05-04 12:08 | 49.01859 | -16.11309 | 32248 ft | 501 kts | 275° |
| 2026-05-04 12:09 | 49.01981 | -16.21920 | 32250 ft | 500 kts | 275° |
| 2026-05-04 12:09 | 49.02094 | -16.32506 | 32258 ft | 500 kts | 275° |
| 2026-05-04 12:10 | 49.02197 | -16.43087 | 32253 ft | 499 kts | 274° |
| 2026-05-04 12:10 | 49.02290 | -16.53662 | 32255 ft | 498 kts | 274° |
| 2026-05-04 12:11 | 49.02373 | -16.64215 | 32263 ft | 497 kts | 274° |
| 2026-05-04 12:11 | 49.02446 | -16.74684 | 32267 ft | 497 kts | 274° |
| 2026-05-04 12:12 | 49.02510 | -16.85227 | 32268 ft | 496 kts | 274° |
| 2026-05-04 12:12 | 49.02565 | -16.95745 | 32274 ft | 496 kts | 274° |
| 2026-05-04 12:14 | 49.02686 | -17.37607 | 32288 ft | 494 kts | 273° |
| 2026-05-04 12:15 | 49.02693 | -17.48066 | 32289 ft | 493 kts | 272° |
| 2026-05-04 12:15 | 49.02690 | -17.58509 | 32286 ft | 492 kts | 272° |
| 2026-05-04 12:16 | 49.02678 | -17.68926 | 32289 ft | 492 kts | 272° |
| 2026-05-04 12:16 | 49.02656 | -17.79336 | 32292 ft | 491 kts | 272° |
| 2026-05-04 12:17 | 49.02626 | -17.89747 | 32284 ft | 491 kts | 271° |
| 2026-05-04 12:17 | 49.02586 | -18.00137 | 32287 ft | 489 kts | 271° |
| 2026-05-04 12:18 | 49.02536 | -18.10432 | 32294 ft | 488 kts | 271° |
| 2026-05-04 12:18 | 49.02478 | -18.20778 | 32293 ft | 487 kts | 271° |
| 2026-05-04 12:19 | 49.02411 | -18.31101 | 32299 ft | 487 kts | 271° |
| 2026-05-04 12:19 | 49.02334 | -18.41424 | 32299 ft | 487 kts | 271° |
| 2026-05-04 12:20 | 49.02248 | -18.51753 | 32304 ft | 488 kts | 271° |
| 2026-05-04 12:20 | 49.02153 | -18.62093 | 32307 ft | 488 kts | 271° |
| 2026-05-04 12:21 | 49.02048 | -18.72447 | 32309 ft | 488 kts | 271° |
| 2026-05-04 12:21 | 49.01934 | -18.82794 | 32296 ft | 488 kts | 270° |
| 2026-05-04 12:22 | 49.01812 | -18.93069 | 32306 ft | 487 kts | 271° |
| 2026-05-04 12:22 | 49.01680 | -19.03383 | 32314 ft | 487 kts | 270° |
| 2026-05-04 12:23 | 49.01539 | -19.13695 | 32313 ft | 486 kts | 270° |
| 2026-05-04 12:23 | 49.01389 | -19.23998 | 32318 ft | 486 kts | 270° |
| 2026-05-04 12:24 | 49.01230 | -19.34290 | 32315 ft | 485 kts | 270° |
| 2026-05-04 12:24 | 49.01062 | -19.44560 | 32318 ft | 484 kts | 270° |
| 2026-05-04 12:25 | 49.00885 | -19.54809 | 32323 ft | 483 kts | 270° |
| 2026-05-04 12:25 | 49.00701 | -19.65002 | 32324 ft | 483 kts | 270° |
| 2026-05-04 12:26 | 49.00507 | -19.75221 | 32323 ft | 483 kts | 270° |
| 2026-05-04 12:26 | 49.00304 | -19.85449 | 32323 ft | 483 kts | 269° |
| 2026-05-04 12:27 | 49.00094 | -19.95674 | 32333 ft | 483 kts | 269° |
| 2026-05-04 12:27 | 48.99911 | -20.05889 | 32326 ft | 483 kts | 271° |
| 2026-05-04 12:28 | 48.99844 | -20.16062 | 32331 ft | 483 kts | 270° |
| 2026-05-04 12:28 | 48.99786 | -20.26281 | 32324 ft | 483 kts | 271° |
| 2026-05-04 12:29 | 48.99706 | -20.36512 | 32345 ft | 482 kts | 270° |
| 2026-05-04 12:29 | 48.99605 | -20.46723 | 32349 ft | 482 kts | 271° |
| 2026-05-04 12:30 | 48.99492 | -20.56928 | 32340 ft | 482 kts | 270° |
| 2026-05-04 12:30 | 48.99370 | -20.67146 | 32331 ft | 482 kts | 271° |
| 2026-05-04 12:31 | 48.99241 | -20.77334 | 32355 ft | 481 kts | 270° |
| 2026-05-04 12:31 | 48.99103 | -20.87510 | 32354 ft | 480 kts | 270° |
| 2026-05-04 12:32 | 48.98880 | -21.02692 | 32358 ft | 479 kts | 270° |
| 2026-05-04 12:33 | 48.98720 | -21.12844 | 32331 ft | 479 kts | 270° |
| 2026-05-04 12:33 | 48.98551 | -21.22987 | 32361 ft | 479 kts | 270° |
| 2026-05-04 12:34 | 48.98374 | -21.33140 | 32348 ft | 479 kts | 270° |
| 2026-05-04 12:34 | 48.98188 | -21.43271 | 32351 ft | 479 kts | 270° |
| 2026-05-04 12:35 | 48.97994 | -21.53343 | 32357 ft | 479 kts | 270° |
| 2026-05-04 12:35 | 48.97789 | -21.63490 | 32362 ft | 479 kts | 270° |
| 2026-05-04 12:36 | 48.97576 | -21.73623 | 32362 ft | 479 kts | 270° |
| 2026-05-04 12:36 | 48.97354 | -21.83763 | 32363 ft | 479 kts | 270° |
| 2026-05-04 12:37 | 48.97123 | -21.93896 | 32364 ft | 479 kts | 270° |
| 2026-05-04 12:37 | 48.96883 | -22.04057 | 32369 ft | 479 kts | 269° |
| 2026-05-04 12:38 | 48.96636 | -22.14119 | 32373 ft | 479 kts | 269° |
| 2026-05-04 12:38 | 48.96379 | -22.24242 | 32371 ft | 479 kts | 269° |
| 2026-05-04 12:39 | 48.96113 | -22.34354 | 32375 ft | 478 kts | 269° |
| 2026-05-04 12:39 | 48.95838 | -22.44467 | 32375 ft | 478 kts | 269° |
| 2026-05-04 12:40 | 48.95555 | -22.54579 | 32365 ft | 478 kts | 269° |
| 2026-05-04 12:40 | 48.95262 | -22.64710 | 32375 ft | 478 kts | 269° |
| 2026-05-04 12:41 | 48.94960 | -22.74827 | 32374 ft | 478 kts | 269° |
| 2026-05-04 12:41 | 48.94653 | -22.84864 | 32375 ft | 478 kts | 269° |
| 2026-05-04 12:42 | 48.94334 | -22.94961 | 32384 ft | 478 kts | 269° |
| 2026-05-04 12:42 | 48.94006 | -23.05085 | 32382 ft | 478 kts | 269° |
| 2026-05-04 12:43 | 48.93670 | -23.15174 | 32387 ft | 478 kts | 269° |
| 2026-05-04 12:43 | 48.93327 | -23.25220 | 32385 ft | 478 kts | 269° |
| 2026-05-04 12:44 | 48.92973 | -23.35324 | 32391 ft | 478 kts | 269° |
| 2026-05-04 12:44 | 48.92609 | -23.45436 | 32380 ft | 477 kts | 269° |
| 2026-05-04 12:45 | 48.92241 | -23.55444 | 32388 ft | 477 kts | 268° |
| 2026-05-04 12:45 | 48.91862 | -23.65497 | 32389 ft | 476 kts | 268° |
| 2026-05-04 12:46 | 48.91474 | -23.75558 | 32395 ft | 476 kts | 268° |
| 2026-05-04 12:46 | 48.91078 | -23.85604 | 32393 ft | 476 kts | 268° |
| 2026-05-04 12:47 | 48.90674 | -23.95631 | 32388 ft | 475 kts | 268° |
| 2026-05-04 12:47 | 48.90261 | -24.05656 | 32400 ft | 475 kts | 268° |
| 2026-05-04 12:48 | 48.89842 | -24.15624 | 32404 ft | 475 kts | 268° |
| 2026-05-04 12:48 | 48.89411 | -24.25666 | 32402 ft | 476 kts | 268° |
| 2026-05-04 12:49 | 48.88972 | -24.35698 | 32399 ft | 476 kts | 268° |
| 2026-05-04 12:49 | 48.88600 | -24.44040 | 32408 ft | 476 kts | 268° |
| 2026-05-04 12:50 | 48.88144 | -24.54082 | 32404 ft | 476 kts | 268° |
| 2026-05-04 12:50 | 48.87679 | -24.64137 | 32407 ft | 477 kts | 268° |
| 2026-05-04 12:51 | 48.87205 | -24.74179 | 32409 ft | 477 kts | 268° |
| 2026-05-04 12:51 | 48.86722 | -24.84233 | 32399 ft | 477 kts | 268° |
| 2026-05-04 12:52 | 48.86231 | -24.94280 | 32410 ft | 477 kts | 268° |
| 2026-05-04 12:52 | 48.85734 | -25.04273 | 32417 ft | 477 kts | 268° |
| 2026-05-04 12:53 | 48.85224 | -25.14342 | 32418 ft | 478 kts | 268° |
| 2026-05-04 12:53 | 48.84705 | -25.24407 | 32415 ft | 478 kts | 268° |
| 2026-05-04 12:54 | 48.84177 | -25.34463 | 32410 ft | 478 kts | 268° |
| 2026-05-04 12:54 | 48.83641 | -25.44517 | 32419 ft | 478 kts | 268° |
| 2026-05-04 12:55 | 48.83097 | -25.54569 | 32421 ft | 478 kts | 268° |
| 2026-05-04 12:55 | 48.82543 | -25.64621 | 32424 ft | 478 kts | 268° |
| 2026-05-04 12:56 | 48.81981 | -25.74671 | 32415 ft | 478 kts | 268° |
| 2026-05-04 12:56 | 48.81410 | -25.84717 | 32427 ft | 477 kts | 268° |
| 2026-05-04 12:57 | 48.80832 | -25.94738 | 32428 ft | 477 kts | 268° |
| 2026-05-04 12:57 | 48.80244 | -26.04769 | 32436 ft | 477 kts | 267° |
| 2026-05-04 12:58 | 48.79652 | -26.14714 | 32436 ft | 476 kts | 267° |
| 2026-05-04 12:58 | 48.79049 | -26.24706 | 32430 ft | 476 kts | 267° |
| 2026-05-04 12:59 | 48.78437 | -26.34707 | 32436 ft | 475 kts | 267° |
| 2026-05-04 12:59 | 48.77817 | -26.44689 | 32442 ft | 475 kts | 267° |
| 2026-05-04 13:00 | 48.77189 | -26.54667 | 32443 ft | 475 kts | 266° |
| 2026-05-04 13:00 | 48.76552 | -26.64635 | 32443 ft | 475 kts | 266° |
| 2026-05-04 13:01 | 48.75907 | -26.74603 | 32438 ft | 475 kts | 266° |
| 2026-05-04 13:01 | 48.75258 | -26.84500 | 32444 ft | 475 kts | 266° |
| 2026-05-04 13:02 | 48.74596 | -26.94456 | 32442 ft | 475 kts | 266° |
| 2026-05-04 13:02 | 48.73924 | -27.04427 | 32447 ft | 475 kts | 266° |
| 2026-05-04 13:03 | 48.73243 | -27.14397 | 32442 ft | 475 kts | 266° |
| 2026-05-04 13:03 | 48.72555 | -27.24349 | 32448 ft | 475 kts | 266° |
| 2026-05-04 13:04 | 48.71859 | -27.34291 | 32450 ft | 474 kts | 266° |
| 2026-05-04 13:04 | 48.71155 | -27.44215 | 32446 ft | 473 kts | 265° |
| 2026-05-04 13:05 | 48.70449 | -27.54060 | 32446 ft | 472 kts | 265° |
| 2026-05-04 13:05 | 48.69732 | -27.63930 | 32451 ft | 472 kts | 265° |
| 2026-05-04 13:06 | 48.69006 | -27.73805 | 32456 ft | 472 kts | 265° |
| 2026-05-04 13:06 | 48.68272 | -27.83670 | 32453 ft | 472 kts | 265° |
| 2026-05-04 13:07 | 48.67529 | -27.93545 | 32452 ft | 472 kts | 265° |
| 2026-05-04 13:07 | 48.66776 | -28.03427 | 32446 ft | 472 kts | 265° |
| 2026-05-04 13:08 | 48.66016 | -28.13298 | 32452 ft | 472 kts | 265° |
| 2026-05-04 13:08 | 48.65247 | -28.23171 | 32452 ft | 472 kts | 265° |
| 2026-05-04 13:09 | 48.64470 | -28.33027 | 32454 ft | 472 kts | 265° |
| 2026-05-04 13:09 | 48.63691 | -28.42816 | 32454 ft | 472 kts | 265° |
| 2026-05-04 13:10 | 48.62898 | -28.52664 | 32448 ft | 471 kts | 264° |
| 2026-05-04 13:10 | 48.62096 | -28.62511 | 32462 ft | 471 kts | 264° |
| 2026-05-04 13:11 | 48.61287 | -28.72335 | 32457 ft | 470 kts | 264° |
| 2026-05-04 13:11 | 48.60473 | -28.82132 | 32453 ft | 469 kts | 264° |
| 2026-05-04 13:12 | 48.59657 | -28.91833 | 32456 ft | 468 kts | 264° |
| 2026-05-04 13:12 | 48.58830 | -29.01584 | 32453 ft | 467 kts | 264° |
| 2026-05-04 13:13 | 48.57995 | -29.11319 | 32457 ft | 467 kts | 263° |
| 2026-05-04 13:13 | 48.57151 | -29.21062 | 32458 ft | 467 kts | 263° |
| 2026-05-04 13:14 | 48.56304 | -29.30743 | 32461 ft | 468 kts | 263° |
| 2026-05-04 13:14 | 48.55443 | -29.40479 | 32455 ft | 468 kts | 263° |
| 2026-05-04 13:15 | 48.54574 | -29.50216 | 32461 ft | 468 kts | 263° |
| 2026-05-04 13:15 | 48.53698 | -29.59940 | 32477 ft | 468 kts | 263° |
| 2026-05-04 13:16 | 48.52812 | -29.69675 | 32468 ft | 468 kts | 263° |
| 2026-05-04 13:16 | 48.51918 | -29.79406 | 32463 ft | 467 kts | 263° |
| 2026-05-04 13:17 | 48.51019 | -29.89111 | 32461 ft | 467 kts | 262° |
| 2026-05-04 13:17 | 48.50117 | -29.98762 | 32463 ft | 466 kts | 262° |
| 2026-05-04 13:18 | 48.49158 | -30.08406 | 32463 ft | 465 kts | 261° |
| 2026-05-04 13:18 | 48.48142 | -30.18015 | 32462 ft | 464 kts | 261° |
| 2026-05-04 13:19 | 48.47119 | -30.27617 | 32459 ft | 463 kts | 261° |
| 2026-05-04 13:19 | 48.46098 | -30.37209 | 32467 ft | 463 kts | 261° |
| 2026-05-04 13:20 | 48.45080 | -30.46728 | 32467 ft | 463 kts | 261° |
| 2026-05-04 13:20 | 48.44051 | -30.56292 | 32471 ft | 463 kts | 261° |
| 2026-05-04 13:21 | 48.43012 | -30.65856 | 32458 ft | 463 kts | 261° |
| 2026-05-04 13:21 | 48.41965 | -30.75418 | 32466 ft | 463 kts | 260° |
| 2026-05-04 13:22 | 48.40910 | -30.84984 | 32465 ft | 463 kts | 260° |
| 2026-05-04 13:22 | 48.39846 | -30.94543 | 32463 ft | 463 kts | 260° |
| 2026-05-04 13:23 | 48.38775 | -31.04102 | 32459 ft | 463 kts | 260° |
| 2026-05-04 13:23 | 48.37697 | -31.13647 | 32456 ft | 463 kts | 260° |
| 2026-05-04 13:24 | 48.36610 | -31.23192 | 32462 ft | 463 kts | 260° |
| 2026-05-04 13:24 | 48.35525 | -31.32651 | 32454 ft | 462 kts | 260° |
| 2026-05-04 13:25 | 48.33873 | -31.46908 | 32454 ft | 461 kts | 260° |
| 2026-05-04 13:25 | 48.32763 | -31.56402 | 32456 ft | 460 kts | 259° |
| 2026-05-04 13:26 | 48.31647 | -31.65882 | 32448 ft | 460 kts | 260° |
| 2026-05-04 13:26 | 48.30523 | -31.75357 | 32456 ft | 461 kts | 260° |
| 2026-05-04 13:27 | 48.29391 | -31.84829 | 32457 ft | 461 kts | 260° |
| 2026-05-04 13:27 | 48.28254 | -31.94272 | 32455 ft | 462 kts | 260° |
| 2026-05-04 13:28 | 48.27101 | -32.03777 | 32457 ft | 463 kts | 259° |
| 2026-05-04 13:28 | 48.25938 | -32.13296 | 32458 ft | 463 kts | 259° |
| 2026-05-04 13:29 | 48.24769 | -32.22797 | 32444 ft | 463 kts | 259° |
| 2026-05-04 13:29 | 48.23592 | -32.32295 | 32452 ft | 463 kts | 259° |
| 2026-05-04 13:30 | 48.22408 | -32.41782 | 32448 ft | 463 kts | 259° |
| 2026-05-04 13:30 | 48.21222 | -32.51217 | 32429 ft | 462 kts | 260° |
| 2026-05-04 13:31 | 48.20020 | -32.60715 | 32453 ft | 463 kts | 261° |
| 2026-05-04 13:31 | 48.18812 | -32.70207 | 32445 ft | 464 kts | 260° |
| 2026-05-04 13:32 | 48.17593 | -32.79702 | 32449 ft | 465 kts | 260° |
| 2026-05-04 13:32 | 48.16371 | -32.89157 | 32440 ft | 465 kts | 260° |
| 2026-05-04 13:33 | 48.15132 | -32.98672 | 32429 ft | 466 kts | 261° |
| 2026-05-04 13:33 | 48.13885 | -33.08205 | 32442 ft | 466 kts | 261° |
| 2026-05-04 13:34 | 48.12626 | -33.17753 | 32439 ft | 467 kts | 261° |
| 2026-05-04 13:34 | 48.11366 | -33.27241 | 32440 ft | 468 kts | 261° |
| 2026-05-04 13:35 | 48.09447 | -33.41562 | 32421 ft | 468 kts | 262° |
| 2026-05-04 13:36 | 48.08375 | -33.49515 | 32434 ft | 469 kts | 262° |
| 2026-05-04 13:36 | 48.07079 | -33.59073 | 32432 ft | 469 kts | 262° |
| 2026-05-04 13:37 | 48.05771 | -33.68645 | 32427 ft | 470 kts | 262° |
| 2026-05-04 13:37 | 48.04456 | -33.78205 | 32429 ft | 470 kts | 262° |
| 2026-05-04 13:38 | 48.03129 | -33.87785 | 32421 ft | 470 kts | 263° |
| 2026-05-04 13:38 | 48.01797 | -33.97354 | 32423 ft | 470 kts | 264° |
| 2026-05-04 13:39 | 48.00458 | -34.06888 | 32413 ft | 469 kts | 264° |
| 2026-05-04 13:39 | 47.99119 | -34.16366 | 32418 ft | 469 kts | 264° |
| 2026-05-04 13:40 | 47.97767 | -34.25878 | 32401 ft | 468 kts | 265° |
| 2026-05-04 13:40 | 47.96408 | -34.35386 | 32411 ft | 468 kts | 265° |
| 2026-05-04 13:41 | 47.95044 | -34.44880 | 32411 ft | 468 kts | 265° |
| 2026-05-04 13:41 | 47.93672 | -34.54361 | 32413 ft | 468 kts | 265° |
| 2026-05-04 13:42 | 47.91594 | -34.68611 | 32549 ft | 470 kts | 265° |
| 2026-05-04 13:42 | 47.90897 | -34.73355 | 32919 ft | 468 kts | 265° |
| 2026-05-04 13:42 | 47.90200 | -34.78074 | 33344 ft | 464 kts | 265° |
| 2026-05-04 13:43 | 47.89507 | -34.82747 | 33753 ft | 461 kts | 265° |
| 2026-05-04 13:43 | 47.88816 | -34.87398 | 34132 ft | 458 kts | 265° |
| 2026-05-04 13:43 | 47.88127 | -34.92042 | 34341 ft | 460 kts | 265° |
| 2026-05-04 13:43 | 47.87437 | -34.96693 | 34379 ft | 462 kts | 265° |
| 2026-05-04 13:44 | 47.86049 | -35.05981 | 34398 ft | 459 kts | 265° |
| 2026-05-04 13:44 | 47.84657 | -35.15200 | 34392 ft | 454 kts | 265° |
| 2026-05-04 13:45 | 47.83273 | -35.24335 | 34398 ft | 451 kts | 265° |
| 2026-05-04 13:45 | 47.81887 | -35.33452 | 34404 ft | 451 kts | 265° |
| 2026-05-04 13:46 | 47.80492 | -35.42577 | 34400 ft | 453 kts | 265° |
| 2026-05-04 13:46 | 47.79080 | -35.51752 | 34367 ft | 455 kts | 265° |
| 2026-05-04 13:47 | 47.77668 | -35.60869 | 34387 ft | 456 kts | 264° |
| 2026-05-04 13:47 | 47.76233 | -35.70076 | 34392 ft | 458 kts | 264° |
| 2026-05-04 13:48 | 47.74783 | -35.79325 | 34390 ft | 459 kts | 264° |
| 2026-05-04 13:48 | 47.73328 | -35.88554 | 34389 ft | 459 kts | 264° |
| 2026-05-04 13:49 | 47.71866 | -35.97780 | 34372 ft | 458 kts | 264° |
| 2026-05-04 13:49 | 47.70398 | -36.06983 | 34377 ft | 457 kts | 264° |
| 2026-05-04 13:50 | 47.68942 | -36.16065 | 34377 ft | 456 kts | 264° |
| 2026-05-04 13:50 | 47.67466 | -36.25226 | 34379 ft | 456 kts | 264° |